createdAt,value
2019-05-02T00:02:47.629Z,19.00
2019-05-02T00:06:50.171Z,17.07
2019-05-02T00:10:52.615Z,21.10
2019-05-02T00:14:56.469Z,16.23
2019-05-02T00:18:59.952Z,15.43
2019-05-02T00:23:02.531Z,16.17
2019-05-02T00:27:04.824Z,13.23
2019-05-02T00:31:11.431Z,13.53
2019-05-02T00:35:13.155Z,14.30
2019-05-02T00:39:15.977Z,13.03
2019-05-02T00:43:18.438Z,13.60
2019-05-02T00:47:21.050Z,14.40
2019-05-02T00:51:26.833Z,13.67
2019-05-02T00:55:33.906Z,12.33
2019-05-02T00:59:33.504Z,12.60
2019-05-02T01:03:36.302Z,13.57
2019-05-02T01:07:39.159Z,14.70
2019-05-02T01:11:42.419Z,13.43
2019-05-02T01:15:45.972Z,11.20
2019-05-02T01:19:51.378Z,14.23
2019-05-02T01:23:53.339Z,11.97
2019-05-02T01:27:55.914Z,11.70
2019-05-02T01:31:58.651Z,12.70
2019-05-02T01:36:06.140Z,11.50
2019-05-02T01:40:06.253Z,12.00
2019-05-02T01:44:08.922Z,11.23
2019-05-02T01:48:11.670Z,10.73
2019-05-02T01:52:18.818Z,12.63
2019-05-02T01:56:19.140Z,11.00
2019-05-02T02:00:22.284Z,11.67
2019-05-02T02:04:24.862Z,10.73
2019-05-02T02:08:32.328Z,10.40
2019-05-02T02:12:31.832Z,10.23
2019-05-02T02:16:35.200Z,10.97
2019-05-02T02:20:38.504Z,11.00
2019-05-02T02:24:41.441Z,9.93
2019-05-02T02:28:43.875Z,10.13
2019-05-02T02:32:46.528Z,12.33
2019-05-02T02:36:48.910Z,9.90
2019-05-02T02:40:51.509Z,10.80
2019-05-02T02:44:53.916Z,9.43
2019-05-02T02:48:56.491Z,10.43
2019-05-02T02:52:59.095Z,13.00
2019-05-02T02:57:01.604Z,9.30
2019-05-02T03:01:04.173Z,9.47
2019-05-02T03:05:06.845Z,9.63
2019-05-02T03:09:09.353Z,9.10
2019-05-02T03:13:14.956Z,8.80
2019-05-02T03:17:20.313Z,9.30
2019-05-02T03:21:22.261Z,8.50
2019-05-02T03:25:27.100Z,8.87
2019-05-02T03:29:39.828Z,9.77
2019-05-02T03:33:31.384Z,9.60
2019-05-02T03:37:34.071Z,9.17
2019-05-02T03:41:36.444Z,9.70
2019-05-02T03:45:42.890Z,9.03
2019-05-02T03:49:48.546Z,7.87
2019-05-02T03:53:46.604Z,9.07
2019-05-02T03:57:49.051Z,8.27
2019-05-02T04:01:51.791Z,10.53
2019-05-02T04:05:54.329Z,9.37
2019-05-02T04:09:56.910Z,8.60
2019-05-02T04:13:59.287Z,8.00
2019-05-02T04:18:01.691Z,7.60
2019-05-02T04:22:08.639Z,8.40
2019-05-02T04:26:12.718Z,8.30
2019-05-02T04:30:14.176Z,8.70
2019-05-02T04:34:17.953Z,8.03
2019-05-02T04:38:30.760Z,8.80
2019-05-02T04:42:24.582Z,8.30
2019-05-02T04:46:30.942Z,7.70
2019-05-02T04:50:31.118Z,7.93
2019-05-02T04:54:33.455Z,8.53
2019-05-02T04:58:37.923Z,7.60
2019-05-02T05:02:40.196Z,8.33
2019-05-02T05:06:52.631Z,7.90
2019-05-02T05:10:47.978Z,7.50
2019-05-02T05:14:50.710Z,7.83
2019-05-02T05:18:53.350Z,8.13
2019-05-02T05:22:57.991Z,8.37
2019-05-02T05:27:00.121Z,7.70
2019-05-02T05:31:02.785Z,6.80
2019-05-02T05:35:09.020Z,7.23
2019-05-02T05:39:11.652Z,7.70
2019-05-02T05:43:15.715Z,9.40
2019-05-02T05:47:17.588Z,8.47
2019-05-02T05:51:20.716Z,7.40
2019-05-02T05:55:24.323Z,7.40
2019-05-02T05:59:29.516Z,7.30
2019-05-02T06:03:33.919Z,6.73
2019-05-02T06:07:41.201Z,7.13
2019-05-02T06:11:38.705Z,7.77
2019-05-02T06:15:41.185Z,7.20
2019-05-02T06:19:48.158Z,6.97
2019-05-02T06:23:47.526Z,6.57
2019-05-02T06:27:49.948Z,6.90
2019-05-02T06:31:52.753Z,6.87
2019-05-02T06:36:00.997Z,7.23
2019-05-02T06:40:03.238Z,6.70
2019-05-02T06:44:02.646Z,6.00
2019-05-02T06:48:05.205Z,6.80
2019-05-02T06:52:07.850Z,6.27
2019-05-02T06:56:12.693Z,6.97
2019-05-02T07:00:14.580Z,7.47
2019-05-02T07:04:17.356Z,6.43
2019-05-02T07:08:20.869Z,7.00
2019-05-02T07:12:23.300Z,8.03
2019-05-02T07:16:37.531Z,6.20
2019-05-02T07:20:29.751Z,6.03
2019-05-02T07:24:32.806Z,6.40
2019-05-02T07:28:35.259Z,6.47
2019-05-02T07:32:37.807Z,6.90
2019-05-02T07:36:40.186Z,7.40
2019-05-02T07:40:42.874Z,7.03
2019-05-02T07:44:45.361Z,7.53
2019-05-02T07:48:49.051Z,6.70
2019-05-02T07:52:51.952Z,5.57
2019-05-02T07:56:54.967Z,5.90
2019-05-02T08:00:57.218Z,5.60
2019-05-02T08:04:59.876Z,5.83
2019-05-02T08:09:07.149Z,6.07
2019-05-02T08:13:06.572Z,5.90
2019-05-02T08:17:16.153Z,6.50
2019-05-02T08:21:13.068Z,6.67
2019-05-02T08:25:15.478Z,5.30
2019-05-02T08:29:18.084Z,5.77
2019-05-02T08:33:20.965Z,6.23
2019-05-02T08:37:23.505Z,5.40
2019-05-02T08:41:25.929Z,5.50
2019-05-02T08:45:33.137Z,5.13
2019-05-02T08:49:32.661Z,7.30
2019-05-02T08:53:35.128Z,7.40
2019-05-02T08:57:37.494Z,7.73
2019-05-02T09:01:39.998Z,7.53
2019-05-02T09:05:46.119Z,6.37
2019-05-02T09:09:46.220Z,7.80
2019-05-02T09:13:48.735Z,6.73
2019-05-02T09:17:56.333Z,6.23
2019-05-02T09:21:54.852Z,7.20
2019-05-02T09:25:57.321Z,5.93
2019-05-02T09:29:59.648Z,5.13
2019-05-02T09:34:02.675Z,5.80
2019-05-02T09:38:05.399Z,6.13
2019-05-02T09:42:12.401Z,6.03
2019-05-02T09:46:12.927Z,7.80
2019-05-02T09:50:15.809Z,5.73
2019-05-02T09:54:18.103Z,7.20
2019-05-02T09:58:21.883Z,5.70
2019-05-02T10:02:25.263Z,5.77
2019-05-02T10:06:27.855Z,5.60
2019-05-02T10:10:32.196Z,5.50
2019-05-02T10:14:34.074Z,8.13
2019-05-02T10:18:36.536Z,6.37
2019-05-02T10:22:39.501Z,7.07
2019-05-02T10:26:42.869Z,6.80
2019-05-02T10:30:47.469Z,6.10
2019-05-02T10:34:55.157Z,5.97
2019-05-02T10:38:54.966Z,6.37
2019-05-02T10:42:56.955Z,5.83
2019-05-02T10:46:59.490Z,7.43
2019-05-02T10:51:01.923Z,6.50
2019-05-02T10:55:04.551Z,6.07
2019-05-02T11:03:16.336Z,11.72
2019-05-02T11:20:17.803Z,12.25
2019-05-02T11:37:12.149Z,7.73
2019-05-02T11:45:46.992Z,9.89
2019-05-02T12:02:49.065Z,8.57
2019-05-02T12:11:15.944Z,6.67
2019-05-02T18:35:06.187Z,22.33
